createdAt,value
2023-05-19T00:00:25.147Z,9.23
2023-05-19T00:00:56.057Z,9.22
2023-05-19T00:01:26.991Z,9.77
2023-05-19T00:01:57.910Z,10.05
2023-05-19T00:02:28.924Z,9.34
2023-05-19T00:02:59.473Z,9.39
2023-05-19T00:03:30.003Z,9.87
2023-05-19T00:04:00.903Z,9.98
2023-05-19T00:04:31.821Z,9.29
2023-05-19T00:05:02.800Z,10.22
2023-05-19T00:05:33.840Z,9.43
2023-05-19T00:06:04.394Z,9.21
2023-05-19T00:06:35.289Z,9.48
2023-05-19T00:07:06.182Z,9.65
2023-05-19T00:07:37.061Z,10.10
2023-05-19T00:08:07.961Z,9.73
2023-05-19T00:08:38.834Z,9.83
2023-05-19T00:09:09.719Z,9.55
2023-05-19T00:09:40.705Z,9.79
2023-05-19T00:10:11.800Z,9.44
2023-05-19T00:10:42.296Z,9.97
2023-05-19T00:11:13.575Z,9.83
2023-05-19T00:11:44.057Z,9.25
2023-05-19T00:12:15.153Z,9.66
2023-05-19T00:12:45.531Z,10.07
2023-05-19T00:13:16.429Z,9.31
2023-05-19T00:13:47.299Z,9.73
2023-05-19T00:14:18.187Z,10.40
2023-05-19T00:14:49.105Z,9.62
2023-05-19T00:15:20.004Z,10.01
2023-05-19T00:15:51.059Z,9.83
2023-05-19T00:16:21.993Z,9.62
2023-05-19T00:16:52.204Z,10.04
2023-05-19T00:17:23.112Z,9.76
2023-05-19T00:17:54.098Z,9.25
2023-05-19T00:18:24.621Z,9.62
2023-05-19T00:18:55.140Z,9.25
2023-05-19T00:19:25.605Z,9.91
2023-05-19T00:19:56.352Z,9.44
2023-05-19T00:20:27.266Z,9.26
2023-05-19T00:20:58.154Z,9.68
2023-05-19T00:21:29.033Z,9.69
2023-05-19T00:21:59.958Z,9.68
2023-05-19T00:22:30.961Z,9.41
2023-05-19T00:23:01.965Z,10.04
2023-05-19T00:23:32.727Z,10.12
2023-05-19T00:24:03.684Z,9.41
2023-05-19T00:24:34.604Z,9.89
2023-05-19T00:25:05.502Z,9.37
2023-05-19T00:25:36.379Z,9.43
2023-05-19T00:26:07.269Z,9.89
2023-05-19T00:26:38.185Z,9.74
2023-05-19T00:27:09.053Z,10.28
2023-05-19T00:27:39.949Z,9.18
2023-05-19T00:28:10.813Z,9.13
2023-05-19T00:28:41.712Z,9.34
2023-05-19T00:29:12.639Z,10.04
2023-05-19T00:29:43.597Z,9.34
2023-05-19T00:30:14.494Z,9.47
2023-05-19T00:30:45.519Z,9.54
2023-05-19T00:31:16.025Z,9.16
2023-05-19T00:31:46.461Z,9.46
2023-05-19T00:32:17.071Z,9.64
2023-05-19T00:32:47.532Z,10.12
2023-05-19T00:33:18.427Z,9.80
2023-05-19T00:33:49.307Z,9.32
2023-05-19T00:34:20.296Z,9.48
2023-05-19T00:34:51.190Z,9.14
2023-05-19T00:35:22.071Z,9.91
2023-05-19T00:35:53.048Z,9.32
2023-05-19T00:36:24.097Z,9.68
2023-05-19T00:36:54.510Z,10.30
2023-05-19T00:37:25.451Z,9.59
2023-05-19T00:37:56.389Z,9.87
2023-05-19T00:38:27.300Z,9.11
2023-05-19T00:38:58.191Z,9.32
2023-05-19T00:39:28.672Z,9.04
2023-05-19T00:39:59.541Z,9.41
2023-05-19T00:40:30.620Z,9.73
2023-05-19T00:41:01.344Z,9.44
2023-05-19T00:41:32.272Z,9.29
2023-05-19T00:42:03.149Z,9.31
2023-05-19T00:42:34.136Z,9.86
2023-05-19T00:43:05.037Z,9.43
2023-05-19T00:43:36.034Z,8.95
2023-05-19T00:44:06.513Z,9.64
2023-05-19T00:44:37.407Z,9.73
2023-05-19T00:45:08.314Z,9.99
2023-05-19T00:45:39.239Z,9.47
2023-05-19T00:46:10.149Z,9.54
2023-05-19T00:46:41.117Z,9.55
2023-05-19T00:47:12.203Z,9.26
2023-05-19T00:47:42.666Z,9.59
2023-05-19T00:48:13.615Z,8.99
2023-05-19T00:48:44.551Z,9.73
2023-05-19T00:49:15.101Z,9.80
2023-05-19T00:49:46.057Z,9.47
2023-05-19T00:50:16.967Z,9.59
2023-05-19T00:50:47.853Z,9.84
2023-05-19T00:51:18.801Z,8.60
2023-05-19T00:51:49.742Z,9.56
2023-05-19T00:52:20.652Z,9.14
2023-05-19T00:52:51.123Z,9.65
2023-05-19T00:53:21.991Z,9.46
2023-05-19T00:53:53.210Z,10.04
2023-05-19T00:54:23.617Z,9.72
2023-05-19T00:54:54.574Z,9.47
2023-05-19T00:55:25.478Z,9.03
2023-05-19T00:55:56.498Z,9.58
2023-05-19T00:56:26.970Z,9.56
2023-05-19T00:56:57.840Z,9.48
2023-05-19T00:57:28.735Z,8.87
2023-05-19T00:57:59.641Z,9.68
2023-05-19T00:58:30.699Z,8.99
2023-05-19T00:59:01.161Z,8.76
2023-05-19T00:59:32.062Z,9.06
2023-05-19T01:00:02.955Z,9.59
2023-05-19T01:00:34.177Z,10.51
2023-05-19T01:01:05.309Z,8.78
2023-05-19T01:01:35.527Z,9.56
2023-05-19T01:02:06.404Z,9.34
2023-05-19T01:02:37.237Z,8.42
2023-05-19T01:03:07.839Z,9.64
2023-05-19T01:03:38.329Z,9.26
2023-05-19T01:04:09.281Z,9.36
2023-05-19T01:04:40.259Z,9.86
2023-05-19T01:05:11.153Z,9.44
2023-05-19T01:05:42.027Z,9.37
2023-05-19T01:06:12.917Z,8.82
2023-05-19T01:06:43.824Z,10.10
2023-05-19T01:07:14.697Z,9.79
2023-05-19T01:07:45.690Z,9.37
2023-05-19T01:08:16.653Z,9.10
2023-05-19T01:08:47.554Z,9.19
2023-05-19T01:09:18.421Z,9.82
2023-05-19T01:09:49.304Z,9.13
2023-05-19T01:10:20.185Z,9.64
2023-05-19T01:10:51.041Z,9.69
2023-05-19T01:11:21.904Z,9.22
2023-05-19T01:11:52.873Z,9.72
2023-05-19T01:12:23.944Z,9.19
2023-05-19T01:12:54.435Z,10.22
2023-05-19T01:13:25.511Z,9.02
2023-05-19T01:13:55.988Z,9.32
2023-05-19T01:14:27.074Z,9.62
2023-05-19T01:14:57.554Z,10.12
2023-05-19T01:15:28.230Z,9.43
2023-05-19T01:15:58.637Z,9.59
2023-05-19T01:16:29.610Z,10.28
2023-05-19T01:17:00.521Z,9.44
2023-05-19T01:17:31.440Z,9.14
2023-05-19T01:18:02.382Z,9.29
2023-05-19T01:18:32.866Z,9.25
2023-05-19T01:19:03.989Z,9.89
2023-05-19T01:19:34.798Z,9.28
2023-05-19T01:20:05.329Z,8.46
2023-05-19T01:20:36.528Z,9.61
2023-05-19T01:21:06.944Z,8.94
2023-05-19T01:21:38.071Z,9.02
2023-05-19T01:22:08.564Z,9.37
2023-05-19T01:22:39.445Z,9.62
2023-05-19T01:23:10.348Z,9.47
2023-05-19T01:23:41.244Z,9.51
2023-05-19T01:24:12.124Z,9.69
2023-05-19T01:24:43.015Z,8.82
2023-05-19T01:25:13.925Z,10.28
2023-05-19T01:25:44.812Z,9.04
2023-05-19T01:26:15.718Z,8.87
2023-05-19T01:26:46.706Z,9.73
2023-05-19T01:27:17.631Z,8.71
2023-05-19T01:27:48.533Z,9.00
2023-05-19T01:28:19.434Z,9.41
2023-05-19T01:28:50.375Z,9.87
2023-05-19T01:29:21.272Z,9.46
2023-05-19T01:29:52.181Z,9.14
2023-05-19T01:30:23.037Z,10.19
2023-05-19T01:30:53.909Z,9.14
2023-05-19T01:31:24.969Z,9.32
2023-05-19T01:31:55.486Z,9.34
2023-05-19T01:32:26.502Z,9.34
2023-05-19T01:32:56.906Z,9.91
2023-05-19T01:33:28.040Z,9.34
2023-05-19T01:33:58.533Z,8.89
2023-05-19T01:34:29.582Z,8.99
2023-05-19T01:34:59.985Z,8.74
2023-05-19T01:35:30.876Z,8.87
2023-05-19T01:36:01.741Z,9.00
2023-05-19T01:36:32.636Z,8.78
2023-05-19T01:37:03.518Z,8.74
2023-05-19T01:37:34.432Z,8.85
2023-05-19T01:38:05.358Z,9.31
2023-05-19T01:38:36.459Z,8.76
2023-05-19T01:39:06.980Z,8.76
2023-05-19T01:39:38.404Z,8.48
2023-05-19T01:40:08.897Z,9.51
2023-05-19T01:40:39.755Z,9.28
2023-05-19T01:41:10.626Z,9.04
2023-05-19T01:41:41.495Z,8.19
2023-05-19T01:42:12.425Z,8.69
2023-05-19T01:42:43.321Z,9.03
2023-05-19T01:43:14.194Z,8.97
2023-05-19T01:43:45.123Z,8.63
2023-05-19T01:44:16.140Z,9.23
2023-05-19T01:44:46.567Z,9.22
2023-05-19T01:45:17.468Z,8.92
2023-05-19T01:45:48.478Z,8.87
2023-05-19T01:46:19.058Z,8.46
2023-05-19T01:46:49.528Z,8.48
2023-05-19T01:47:20.439Z,8.34
2023-05-19T01:47:51.456Z,8.38
2023-05-19T01:48:21.896Z,9.34
2023-05-19T01:48:52.802Z,8.91
2023-05-19T01:49:23.692Z,9.03
2023-05-19T01:49:54.577Z,9.11
2023-05-19T01:50:25.469Z,8.82
2023-05-19T01:50:56.328Z,8.55
2023-05-19T01:51:27.291Z,9.40
2023-05-19T01:51:58.216Z,8.64
2023-05-19T01:52:29.112Z,8.20
2023-05-19T01:52:59.982Z,8.76
2023-05-19T01:53:30.915Z,8.84
2023-05-19T01:54:01.794Z,8.70
2023-05-19T01:54:32.753Z,8.82
2023-05-19T01:55:03.642Z,8.64
2023-05-19T01:55:34.533Z,9.00
2023-05-19T01:56:05.395Z,9.10
2023-05-19T01:56:36.380Z,8.67
2023-05-19T01:57:07.293Z,9.00
2023-05-19T01:57:38.389Z,8.95
2023-05-19T01:58:08.875Z,8.58
2023-05-19T01:58:40.000Z,8.23
2023-05-19T01:59:10.392Z,9.39
2023-05-19T01:59:41.274Z,8.79
2023-05-19T02:00:12.234Z,8.82
2023-05-19T02:00:43.136Z,8.81
2023-05-19T02:01:14.096Z,9.44
2023-05-19T02:01:45.109Z,8.73
2023-05-19T02:02:15.651Z,8.41
2023-05-19T02:02:46.311Z,8.88
2023-05-19T02:03:16.797Z,9.03
2023-05-19T02:03:47.915Z,9.31
2023-05-19T02:04:18.490Z,9.18
2023-05-19T02:04:49.460Z,8.81
2023-05-19T02:05:19.798Z,8.58
2023-05-19T02:05:50.918Z,8.12
2023-05-19T02:06:21.316Z,8.31
2023-05-19T02:06:52.249Z,8.44
2023-05-19T02:07:23.138Z,8.78
2023-05-19T02:07:54.015Z,8.37
2023-05-19T02:08:24.885Z,9.00
2023-05-19T02:08:55.749Z,8.01
2023-05-19T02:09:26.719Z,8.45
2023-05-19T02:09:57.642Z,8.88
2023-05-19T02:10:28.537Z,8.69
2023-05-19T02:10:59.508Z,8.71
2023-05-19T02:11:30.392Z,8.53
2023-05-19T02:12:01.249Z,8.85
2023-05-19T02:12:32.120Z,8.67
2023-05-19T02:13:03.108Z,8.34
2023-05-19T02:13:34.003Z,8.92
2023-05-19T02:14:04.883Z,8.67
2023-05-19T02:14:35.787Z,9.10
2023-05-19T02:15:06.701Z,8.73
2023-05-19T02:15:37.891Z,9.00
2023-05-19T02:16:08.413Z,8.10
2023-05-19T02:16:39.032Z,9.65
2023-05-19T02:17:09.520Z,8.69
2023-05-19T02:17:40.481Z,8.99
2023-05-19T02:18:11.361Z,8.53
2023-05-19T02:18:42.277Z,9.02
2023-05-19T02:19:13.310Z,8.81
2023-05-19T02:19:43.693Z,8.66
2023-05-19T02:20:14.590Z,8.78
2023-05-19T02:20:45.447Z,8.66
2023-05-19T02:21:16.363Z,9.28
2023-05-19T02:21:47.456Z,8.74
2023-05-19T02:22:17.964Z,9.06
2023-05-19T02:22:49.295Z,8.55
2023-05-19T02:23:19.759Z,7.82
2023-05-19T02:23:50.860Z,8.42
2023-05-19T02:24:21.365Z,8.41
2023-05-19T02:24:52.230Z,9.00
2023-05-19T02:25:23.207Z,9.23
2023-05-19T02:25:53.627Z,8.66
2023-05-19T02:26:24.523Z,8.24
2023-05-19T02:26:55.409Z,8.00
2023-05-19T02:27:26.292Z,8.92
2023-05-19T02:27:57.176Z,8.45
2023-05-19T02:28:28.101Z,8.76
2023-05-19T02:28:59.257Z,9.11
2023-05-19T02:29:29.725Z,8.84
2023-05-19T02:30:00.899Z,8.66
2023-05-19T02:30:31.495Z,8.45
2023-05-19T02:31:02.113Z,8.89
2023-05-19T02:31:33.057Z,7.80
2023-05-19T02:32:04.020Z,8.51
2023-05-19T02:32:34.934Z,8.73
2023-05-19T02:33:05.870Z,8.87
2023-05-19T02:33:36.746Z,8.55
2023-05-19T02:34:07.660Z,8.99
2023-05-19T02:34:38.628Z,8.56
2023-05-19T02:35:09.320Z,9.32
2023-05-19T02:35:40.314Z,9.31
2023-05-19T02:36:11.215Z,8.64
2023-05-19T02:36:42.328Z,8.74
2023-05-19T02:37:12.723Z,8.58
2023-05-19T02:37:43.631Z,8.67
2023-05-19T02:38:14.522Z,8.64
2023-05-19T02:38:45.405Z,8.55
2023-05-19T02:39:16.265Z,8.74
2023-05-19T02:39:47.134Z,8.76
2023-05-19T02:40:18.007Z,8.64
2023-05-19T02:40:48.969Z,9.10
2023-05-19T02:41:19.956Z,8.58
2023-05-19T02:41:50.896Z,8.27
2023-05-19T02:42:21.923Z,8.42
2023-05-19T02:42:52.437Z,8.70
2023-05-19T02:43:22.842Z,8.71
2023-05-19T02:43:53.749Z,9.23
2023-05-19T02:44:24.720Z,7.90
2023-05-19T02:44:55.607Z,8.73
2023-05-19T02:45:26.488Z,9.03
2023-05-19T02:45:57.377Z,8.61
2023-05-19T02:46:28.313Z,8.67
2023-05-19T02:46:59.257Z,8.37
2023-05-19T02:47:30.226Z,8.61
2023-05-19T02:48:00.714Z,8.23
2023-05-19T02:48:31.632Z,8.36
2023-05-19T02:49:02.799Z,8.73
2023-05-19T02:49:33.181Z,9.00
2023-05-19T02:50:04.051Z,9.08
2023-05-19T02:50:34.934Z,9.00
2023-05-19T02:51:05.830Z,8.36
2023-05-19T02:51:36.757Z,9.02
2023-05-19T02:52:07.645Z,8.24
2023-05-19T02:52:38.628Z,8.71
2023-05-19T02:53:09.562Z,8.00
2023-05-19T02:53:40.549Z,9.00
2023-05-19T02:54:11.466Z,8.34
2023-05-19T02:54:42.375Z,8.56
2023-05-19T02:55:13.234Z,8.36
2023-05-19T02:55:44.167Z,9.46
2023-05-19T02:56:15.057Z,8.31
2023-05-19T02:56:45.984Z,8.53
2023-05-19T02:57:16.851Z,8.82
2023-05-19T02:57:47.718Z,8.38
2023-05-19T02:58:18.633Z,8.85
2023-05-19T02:58:49.558Z,8.78
2023-05-19T02:59:20.509Z,8.99
2023-05-19T02:59:51.482Z,8.49
2023-05-19T03:00:22.482Z,8.30
2023-05-19T03:00:52.939Z,9.47
2023-05-19T03:01:23.847Z,8.38
2023-05-19T03:01:54.775Z,8.89
2023-05-19T03:02:25.674Z,8.60
2023-05-19T03:02:56.615Z,9.22
2023-05-19T03:03:27.593Z,8.41
2023-05-19T03:03:58.128Z,8.49
2023-05-19T03:04:29.021Z,8.64
2023-05-19T03:04:59.912Z,8.87
2023-05-19T03:05:30.870Z,9.56
2023-05-19T03:06:01.370Z,8.71
2023-05-19T03:06:32.290Z,9.28
2023-05-19T03:07:03.207Z,8.74
2023-05-19T03:07:34.105Z,9.65
2023-05-19T03:08:04.991Z,8.66
2023-05-19T03:08:35.920Z,8.38
2023-05-19T03:09:06.805Z,8.76
2023-05-19T03:09:37.681Z,9.03
2023-05-19T03:10:08.558Z,9.44
2023-05-19T03:10:39.548Z,8.33
2023-05-19T03:11:10.463Z,8.85
2023-05-19T03:11:41.398Z,9.25
2023-05-19T03:12:12.346Z,8.84
2023-05-19T03:12:43.339Z,8.44
2023-05-19T03:13:14.229Z,9.59
2023-05-19T03:13:45.140Z,9.40
2023-05-19T03:14:16.039Z,8.56
2023-05-19T03:14:46.921Z,8.53
2023-05-19T03:15:17.801Z,8.70
2023-05-19T03:15:48.850Z,9.03
2023-05-19T03:16:19.416Z,9.21
2023-05-19T03:16:50.630Z,8.78
2023-05-19T03:17:21.369Z,9.00
2023-05-19T03:17:51.918Z,8.45
2023-05-19T03:18:22.740Z,9.40
2023-05-19T03:18:53.247Z,8.44
2023-05-19T03:19:24.258Z,9.26
2023-05-19T03:19:54.641Z,8.85
2023-05-19T03:20:25.520Z,8.41
2023-05-19T03:20:56.466Z,9.21
2023-05-19T03:21:26.941Z,8.85
2023-05-19T03:21:57.805Z,8.74
2023-05-19T03:22:28.684Z,8.51
2023-05-19T03:22:59.554Z,9.23
2023-05-19T03:23:30.529Z,9.76
2023-05-19T03:24:01.441Z,8.66
2023-05-19T03:24:32.352Z,9.59
2023-05-19T03:25:03.529Z,9.79
2023-05-19T03:25:33.961Z,9.39
2023-05-19T03:26:04.773Z,9.18
2023-05-19T03:26:35.593Z,8.41
2023-05-19T03:27:06.487Z,8.82
2023-05-19T03:27:37.318Z,9.37
2023-05-19T03:28:08.164Z,8.45
2023-05-19T03:28:39.025Z,9.86
2023-05-19T03:29:09.889Z,9.29
2023-05-19T03:29:40.824Z,8.88
2023-05-19T03:30:11.675Z,8.44
2023-05-19T03:30:42.564Z,9.41
2023-05-19T03:31:13.433Z,9.10
2023-05-19T03:31:44.281Z,8.44
2023-05-19T03:32:15.122Z,8.81
2023-05-19T03:32:46.059Z,9.58
2023-05-19T03:33:16.582Z,9.40
2023-05-19T03:33:47.073Z,9.46
2023-05-19T03:34:17.932Z,8.56
2023-05-19T03:34:48.795Z,8.05
2023-05-19T03:35:19.601Z,8.63
2023-05-19T03:35:50.461Z,9.28
2023-05-19T03:36:21.289Z,8.74
2023-05-19T03:36:52.388Z,8.81
2023-05-19T03:37:22.848Z,8.76
2023-05-19T03:37:53.962Z,8.82
2023-05-19T03:38:24.380Z,8.31
2023-05-19T03:38:55.257Z,9.82
2023-05-19T03:39:26.093Z,9.21
2023-05-19T03:39:56.956Z,9.34
2023-05-19T03:40:27.801Z,9.13
2023-05-19T03:40:58.651Z,9.37
2023-05-19T03:41:29.549Z,9.11
2023-05-19T03:42:00.406Z,8.52
2023-05-19T03:42:31.389Z,9.19
2023-05-19T03:43:02.200Z,8.55
2023-05-19T03:43:33.106Z,9.36
2023-05-19T03:44:03.986Z,8.95
2023-05-19T03:44:34.850Z,9.21
2023-05-19T03:45:05.675Z,9.21
2023-05-19T03:45:36.539Z,9.28
2023-05-19T03:46:07.496Z,9.44
2023-05-19T03:46:38.354Z,9.04
2023-05-19T03:47:09.207Z,9.06
2023-05-19T03:47:40.085Z,9.26
2023-05-19T03:48:11.337Z,8.84
2023-05-19T03:48:41.719Z,9.06
2023-05-19T03:49:12.644Z,9.31
2023-05-19T03:49:43.724Z,9.44
2023-05-19T03:50:14.145Z,9.00
2023-05-19T03:50:45.007Z,8.91
2023-05-19T03:51:15.836Z,9.83
2023-05-19T03:51:46.681Z,8.70
2023-05-19T03:52:17.518Z,9.19
2023-05-19T03:52:48.359Z,9.32
2023-05-19T03:53:19.214Z,8.31
2023-05-19T03:53:50.045Z,8.74
2023-05-19T03:54:21.044Z,8.82
2023-05-19T03:54:52.105Z,9.00
2023-05-19T03:55:22.470Z,9.26
2023-05-19T03:55:53.492Z,9.25
2023-05-19T03:56:23.919Z,8.99
2023-05-19T03:56:54.957Z,9.25
2023-05-19T03:57:25.378Z,9.29
2023-05-19T03:57:56.226Z,8.56
2023-05-19T03:58:27.052Z,8.91
2023-05-19T03:58:57.895Z,10.10
2023-05-19T03:59:28.741Z,8.91
2023-05-19T03:59:59.586Z,8.92
2023-05-19T04:00:30.692Z,8.99
2023-05-19T04:01:00.983Z,8.95
2023-05-19T04:01:31.852Z,9.39
2023-05-19T04:02:02.737Z,8.12
2023-05-19T04:02:33.703Z,8.48
2023-05-19T04:03:04.434Z,9.99
2023-05-19T04:03:34.919Z,8.55
2023-05-19T04:04:05.856Z,9.34
2023-05-19T04:04:36.756Z,9.72
2023-05-19T04:05:07.729Z,8.95
2023-05-19T04:05:38.548Z,9.04
2023-05-19T04:06:09.375Z,8.81
2023-05-19T04:06:40.215Z,8.99
2023-05-19T04:07:11.050Z,9.23
2023-05-19T04:07:42.124Z,8.71
2023-05-19T04:08:12.549Z,8.46
2023-05-19T04:08:43.491Z,8.85
2023-05-19T04:09:14.439Z,9.94
2023-05-19T04:09:45.319Z,8.66
2023-05-19T04:10:16.234Z,8.92
2023-05-19T04:10:47.060Z,9.14
2023-05-19T04:11:17.875Z,9.08
2023-05-19T04:11:48.706Z,9.25
2023-05-19T04:12:19.530Z,9.37
2023-05-19T04:12:50.358Z,9.34
2023-05-19T04:13:21.215Z,8.81
2023-05-19T04:13:52.076Z,9.18
2023-05-19T04:14:22.942Z,9.25
2023-05-19T04:14:53.861Z,9.31
2023-05-19T04:15:24.716Z,9.22
2023-05-19T04:15:55.670Z,9.83
2023-05-19T04:16:26.598Z,8.58
2023-05-19T04:16:57.494Z,8.60
2023-05-19T04:17:28.406Z,9.02
2023-05-19T04:17:58.945Z,9.62
2023-05-19T04:18:29.990Z,9.22
2023-05-19T04:19:00.394Z,9.36
2023-05-19T04:19:31.383Z,9.34
2023-05-19T04:20:02.298Z,9.69
2023-05-19T04:20:33.432Z,9.26
2023-05-19T04:21:03.732Z,9.39
2023-05-19T04:21:34.559Z,9.36
2023-05-19T04:22:05.460Z,8.84
2023-05-19T04:22:36.492Z,8.92
2023-05-19T04:23:06.911Z,8.91
2023-05-19T04:23:37.751Z,8.94
2023-05-19T04:24:08.610Z,9.87
2023-05-19T04:24:39.448Z,9.83
2023-05-19T04:25:10.269Z,9.39
2023-05-19T04:25:41.147Z,9.16
2023-05-19T04:26:11.980Z,9.54
2023-05-19T04:26:43.087Z,9.46
2023-05-19T04:27:13.481Z,9.41
2023-05-19T04:27:44.392Z,9.56
2023-05-19T04:28:15.229Z,9.13
2023-05-19T04:28:46.133Z,9.23
2023-05-19T04:29:17.043Z,8.64
2023-05-19T04:29:47.869Z,9.08
2023-05-19T04:30:18.816Z,10.19
2023-05-19T04:30:49.210Z,9.28
2023-05-19T04:31:20.169Z,9.13
2023-05-19T04:31:50.953Z,8.84
2023-05-19T04:32:21.930Z,10.15
2023-05-19T04:32:52.776Z,9.19
2023-05-19T04:33:23.901Z,8.82
2023-05-19T04:33:54.312Z,8.46
2023-05-19T04:34:25.343Z,8.79
2023-05-19T04:34:55.769Z,9.22
2023-05-19T04:35:26.871Z,8.88
2023-05-19T04:35:57.296Z,9.94
2023-05-19T04:36:28.115Z,8.71
2023-05-19T04:36:58.941Z,8.63
2023-05-19T04:37:29.771Z,9.04
2023-05-19T04:38:00.639Z,8.92
2023-05-19T04:38:31.455Z,9.21
2023-05-19T04:39:02.289Z,8.60
2023-05-19T04:39:33.440Z,9.83
2023-05-19T04:40:03.877Z,9.76
2023-05-19T04:40:35.079Z,8.94
2023-05-19T04:41:05.363Z,9.14
2023-05-19T04:41:36.538Z,9.13
2023-05-19T04:42:06.966Z,9.79
2023-05-19T04:42:38.026Z,9.41
2023-05-19T04:43:08.342Z,9.56
2023-05-19T04:43:39.184Z,8.15
2023-05-19T04:44:10.037Z,9.13
2023-05-19T04:44:40.866Z,8.34
2023-05-19T04:45:11.687Z,8.97
2023-05-19T04:45:42.626Z,9.89
2023-05-19T04:46:13.848Z,9.28
2023-05-19T04:46:43.681Z,9.59
2023-05-19T04:47:14.540Z,8.91
2023-05-19T04:47:45.514Z,9.97
2023-05-19T04:48:16.370Z,9.51
2023-05-19T04:48:47.328Z,9.34
2023-05-19T04:49:18.266Z,9.74
2023-05-19T04:49:49.095Z,8.60
2023-05-19T04:50:19.964Z,10.02
2023-05-19T04:50:50.885Z,9.28
2023-05-19T04:51:21.726Z,9.08
2023-05-19T04:51:54.848Z,8.73
2023-05-19T04:52:23.370Z,9.40
2023-05-19T04:52:54.306Z,9.00
2023-05-19T04:53:25.154Z,10.01
2023-05-19T04:53:56.105Z,9.22
2023-05-19T04:54:27.079Z,9.66
2023-05-19T04:54:58.010Z,9.25
2023-05-19T04:55:28.916Z,9.23
2023-05-19T04:55:59.760Z,8.92
2023-05-19T04:56:30.607Z,9.83
2023-05-19T04:57:01.444Z,9.19
2023-05-19T04:57:32.331Z,8.95
2023-05-19T04:58:03.156Z,9.25
2023-05-19T04:58:34.127Z,9.59
2023-05-19T04:59:04.990Z,8.91
2023-05-19T04:59:35.944Z,9.47
2023-05-19T05:00:06.996Z,9.51
2023-05-19T05:00:37.444Z,8.95
2023-05-19T05:01:08.333Z,9.00
2023-05-19T05:01:39.260Z,8.82
2023-05-19T05:02:10.364Z,8.91
2023-05-19T05:02:41.034Z,8.78
2023-05-19T05:03:11.964Z,9.72
2023-05-19T05:03:42.924Z,8.97
2023-05-19T05:04:13.855Z,9.72
2023-05-19T05:04:44.866Z,9.40
2023-05-19T05:05:15.686Z,9.39
2023-05-19T05:05:46.555Z,9.22
2023-05-19T05:06:17.471Z,9.48
2023-05-19T05:06:48.396Z,9.19
2023-05-19T05:07:19.252Z,9.50
2023-05-19T05:07:50.080Z,9.43
2023-05-19T05:08:20.908Z,10.01
2023-05-19T05:08:51.762Z,8.76
2023-05-19T05:09:22.607Z,9.23
2023-05-19T05:09:53.472Z,9.89
2023-05-19T05:10:24.315Z,9.31
2023-05-19T05:10:55.276Z,8.91
2023-05-19T05:11:26.111Z,9.56
2023-05-19T05:11:57.219Z,8.66
2023-05-19T05:12:27.650Z,10.04
2023-05-19T05:12:58.773Z,9.43
2023-05-19T05:13:29.209Z,9.54
2023-05-19T05:14:00.093Z,9.46
2023-05-19T05:14:30.952Z,9.08
2023-05-19T05:15:02.068Z,9.34
2023-05-19T05:15:32.651Z,9.08
2023-05-19T05:16:03.603Z,9.10
2023-05-19T05:16:34.476Z,9.72
2023-05-19T05:17:05.407Z,9.41
2023-05-19T05:17:35.825Z,8.94
2023-05-19T05:18:06.259Z,9.34
2023-05-19T05:18:37.214Z,8.73
2023-05-19T05:19:08.137Z,10.05
2023-05-19T05:19:38.989Z,9.14
2023-05-19T05:20:09.941Z,9.99
2023-05-19T05:20:40.783Z,9.64
2023-05-19T05:21:11.748Z,9.59
2023-05-19T05:21:42.595Z,9.77
2023-05-19T05:22:13.434Z,9.02
2023-05-19T05:22:44.248Z,9.10
2023-05-19T05:23:15.087Z,9.37
2023-05-19T05:23:45.950Z,9.82
2023-05-19T05:24:16.919Z,8.92
2023-05-19T05:24:47.858Z,9.58
2023-05-19T05:25:19.399Z,8.82
2023-05-19T05:25:49.362Z,9.44
2023-05-19T05:26:20.329Z,9.89
2023-05-19T05:26:51.193Z,9.55
2023-05-19T05:27:22.033Z,9.48
2023-05-19T05:27:52.880Z,8.92
2023-05-19T05:28:23.691Z,9.46
2023-05-19T05:28:54.506Z,9.82
2023-05-19T05:29:25.365Z,9.61
2023-05-19T05:29:57.430Z,9.64
2023-05-19T05:30:27.347Z,9.25
2023-05-19T05:30:57.999Z,9.26
2023-05-19T05:31:28.435Z,9.14
2023-05-19T05:31:59.286Z,9.48
2023-05-19T05:32:30.536Z,9.10
2023-05-19T05:33:01.042Z,10.28
2023-05-19T05:33:31.472Z,10.02
2023-05-19T05:34:02.371Z,9.89
2023-05-19T05:34:33.278Z,9.66
2023-05-19T05:35:04.141Z,9.94
2023-05-19T05:35:34.987Z,10.02
2023-05-19T05:36:05.957Z,9.36
2023-05-19T05:36:36.932Z,10.64
2023-05-19T05:37:08.018Z,10.28
2023-05-19T05:37:38.446Z,10.02
2023-05-19T05:38:09.375Z,9.29
2023-05-19T05:38:40.232Z,9.54
2023-05-19T05:39:11.062Z,9.76
2023-05-19T05:39:41.911Z,9.51
2023-05-19T05:40:12.811Z,9.16
2023-05-19T05:40:43.684Z,9.82
2023-05-19T05:41:14.528Z,9.86
2023-05-19T05:41:45.363Z,10.28
2023-05-19T05:42:16.492Z,9.83
2023-05-19T05:42:46.918Z,9.73
2023-05-19T05:43:17.769Z,9.46
2023-05-19T05:43:48.731Z,9.76
2023-05-19T05:44:19.672Z,9.18
2023-05-19T05:44:50.108Z,9.99
2023-05-19T05:45:21.088Z,10.07
2023-05-19T05:45:51.937Z,9.73
2023-05-19T05:46:22.811Z,9.76
2023-05-19T05:46:53.727Z,9.66
2023-05-19T05:47:24.578Z,9.80
2023-05-19T05:47:55.493Z,9.61
2023-05-19T05:48:26.076Z,9.76
2023-05-19T05:48:56.938Z,8.89
2023-05-19T05:49:27.769Z,9.91
2023-05-19T05:49:58.741Z,8.97
2023-05-19T05:50:29.391Z,8.92
2023-05-19T05:51:00.029Z,9.32
2023-05-19T05:51:30.470Z,10.69
2023-05-19T05:52:06.368Z,9.99
2023-05-19T05:52:32.190Z,9.62
2023-05-19T05:53:03.019Z,10.78
2023-05-19T05:53:33.871Z,10.10
2023-05-19T05:54:04.741Z,9.59
2023-05-19T05:54:35.556Z,9.83
2023-05-19T05:55:06.381Z,10.17
2023-05-19T05:55:37.265Z,9.22
2023-05-19T05:56:08.106Z,9.39
2023-05-19T05:56:39.042Z,9.36
2023-05-19T05:57:10.168Z,10.42
2023-05-19T05:57:40.613Z,9.69
2023-05-19T05:58:11.789Z,10.04
2023-05-19T05:58:42.819Z,9.82
2023-05-19T05:59:12.663Z,9.65
2023-05-19T05:59:43.539Z,9.73
2023-05-19T06:00:14.434Z,9.87
2023-05-19T06:00:45.352Z,10.48
2023-05-19T06:01:16.337Z,10.26
2023-05-19T06:01:47.264Z,10.19
2023-05-19T06:02:18.151Z,9.69
2023-05-19T06:02:49.170Z,10.04
2023-05-19T06:03:20.309Z,9.56
2023-05-19T06:03:50.945Z,10.40
2023-05-19T06:04:21.505Z,9.62
2023-05-19T06:04:52.322Z,10.49
2023-05-19T06:05:23.163Z,9.84
2023-05-19T06:05:54.079Z,9.65
2023-05-19T06:06:24.986Z,9.83
2023-05-19T06:06:55.834Z,10.10
2023-05-19T06:07:26.664Z,9.92
2023-05-19T06:07:57.600Z,9.62
2023-05-19T06:08:28.510Z,10.53
2023-05-19T06:08:59.376Z,9.95
2023-05-19T06:09:30.406Z,9.91
2023-05-19T06:10:01.119Z,10.16
2023-05-19T06:10:31.680Z,10.12
2023-05-19T06:11:02.414Z,10.09
2023-05-19T06:11:33.250Z,9.86
2023-05-19T06:12:04.116Z,11.40
2023-05-19T06:12:34.972Z,9.83
2023-05-19T06:13:05.839Z,10.57
2023-05-19T06:13:36.729Z,9.83
2023-05-19T06:14:07.597Z,10.82
2023-05-19T06:14:38.518Z,9.87
2023-05-19T06:15:09.375Z,10.60
2023-05-19T06:15:40.453Z,10.72
2023-05-19T06:16:10.913Z,9.72
2023-05-19T06:16:42.113Z,10.26
2023-05-19T06:17:12.432Z,10.40
2023-05-19T06:17:43.290Z,9.82
2023-05-19T06:18:14.222Z,9.72
2023-05-19T06:18:45.170Z,10.34
2023-05-19T06:19:16.079Z,10.10
2023-05-19T06:19:46.556Z,9.95
2023-05-19T06:20:17.383Z,10.34
2023-05-19T06:20:48.479Z,10.05
2023-05-19T06:21:18.898Z,10.01
2023-05-19T06:21:49.941Z,10.56
2023-05-19T06:22:20.388Z,11.44
2023-05-19T06:22:51.454Z,10.26
2023-05-19T06:23:21.812Z,10.49
2023-05-19T06:23:52.918Z,10.17
2023-05-19T06:24:23.271Z,9.64
2023-05-19T06:24:54.110Z,10.51
2023-05-19T06:25:24.928Z,10.93
2023-05-19T06:25:55.816Z,10.51
2023-05-19T06:26:26.683Z,10.67
2023-05-19T06:26:57.525Z,10.82
2023-05-19T06:27:28.377Z,10.37
2023-05-19T06:27:59.324Z,10.71
2023-05-19T06:28:30.243Z,10.69
2023-05-19T06:29:01.120Z,10.82
2023-05-19T06:29:31.880Z,11.40
2023-05-19T06:30:02.386Z,10.28
2023-05-19T06:30:33.259Z,11.00
2023-05-19T06:31:03.513Z,11.25
2023-05-19T06:31:34.276Z,11.29
2023-05-19T06:32:05.207Z,10.51
2023-05-19T06:32:36.066Z,11.55
2023-05-19T06:33:06.988Z,11.60
2023-05-19T06:33:37.483Z,11.14
2023-05-19T06:34:08.358Z,10.99
2023-05-19T06:34:39.222Z,10.34
2023-05-19T06:35:10.182Z,11.72
2023-05-19T06:35:41.164Z,11.55
2023-05-19T06:36:12.086Z,11.50
2023-05-19T06:36:42.961Z,11.50
2023-05-19T06:37:13.792Z,11.18
2023-05-19T06:37:44.638Z,11.94
2023-05-19T06:38:15.494Z,11.17
2023-05-19T06:38:46.405Z,11.90
2023-05-19T06:39:17.271Z,11.37
2023-05-19T06:39:48.165Z,10.84
2023-05-19T06:40:19.136Z,11.36
2023-05-19T06:40:49.617Z,11.94
2023-05-19T06:41:20.560Z,12.07
2023-05-19T06:41:51.412Z,11.47
2023-05-19T06:42:22.374Z,11.80
2023-05-19T06:42:53.299Z,11.75
2023-05-19T06:43:24.137Z,11.88
2023-05-19T06:43:54.974Z,11.14
2023-05-19T06:44:25.822Z,12.28
2023-05-19T06:44:56.689Z,11.80
2023-05-19T06:45:27.527Z,11.77
2023-05-19T06:45:58.366Z,12.22
2023-05-19T06:46:29.624Z,11.66
2023-05-19T06:47:00.357Z,12.32
2023-05-19T06:47:31.308Z,11.60
2023-05-19T06:48:02.020Z,11.97
2023-05-19T06:48:32.505Z,11.97